Time;durP1;ratioP1;P1;durP2;ratioP2;P2;SDS_P1;SDS_P2;PMS_P1;PMS_P2;Temp;Humidity;BMP_temperature;BMP_pressure;BME280_temperature;BME280_humidity;BME280_pressure;Samples;Min_cycle;Max_cycle;Signal;HPM_P1;HPM_P2
2022/03/09 00:00:07;;;;;;;18.58;9.73;;;;;;;1.32;73.39;100646.75;5110757;28;20141;-61
2022/03/09 00:02:33;;;;;;;18.35;9.25;;;;;;;1.21;73.58;100650.97;5110766;28;20026;-61
2022/03/09 00:04:58;;;;;;;15.73;9.43;;;;;;;1.14;73.97;100652.63;5110903;28;20035;-61
2022/03/09 00:07:26;;;;;;;19.73;10.43;;;;;;;1.27;72.81;100654.56;5110933;28;20047;-61
2022/03/09 00:09:51;;;;;;;17.40;8.43;;;;;;;1.05;73.23;100636.78;5092148;28;20107;-62
2022/03/09 00:12:17;;;;;;;18.45;9.13;;;;;;;1.02;75.06;100656.81;5090474;28;20598;-61
2022/03/09 00:14:43;;;;;;;18.88;9.63;;;;;;;0.98;74.35;100652.34;5105480;28;20059;-61
2022/03/09 00:17:08;;;;;;;17.98;9.15;;;;;;;1.01;75.51;100657.63;5110837;28;20027;-61
2022/03/09 00:19:33;;;;;;;15.80;9.07;;;;;;;0.97;75.43;100661.09;5091840;28;20039;-61
2022/03/09 00:21:59;;;;;;;19.15;9.52;;;;;;;0.93;75.62;100660.16;5109273;28;20065;-61
2022/03/09 00:24:24;;;;;;;20.30;9.20;;;;;;;0.92;75.75;100662.75;5090097;28;20715;-61
2022/03/09 00:26:50;;;;;;;21.95;8.82;;;;;;;0.90;75.72;100659.22;5090614;28;20053;-61
2022/03/09 00:29:15;;;;;;;16.85;9.52;;;;;;;0.87;75.87;100664.41;5089509;28;20575;-61
2022/03/09 00:31:41;;;;;;;14.88;8.07;;;;;;;0.81;76.28;100664.28;5090479;28;20038;-61
2022/03/09 00:34:06;;;;;;;19.58;9.25;;;;;;;0.79;76.60;100672.13;5090329;28;20026;-61
2022/03/09 00:36:32;;;;;;;13.38;7.53;;;;;;;0.78;75.96;100667.75;5094809;28;20070;-61
2022/03/09 00:38:57;;;;;;;21.52;9.10;;;;;;;0.76;77.38;100665.94;5089822;28;20036;-61
2022/03/09 00:41:23;;;;;;;15.68;9.20;;;;;;;0.76;77.86;100677.31;5090552;28;20141;-61
2022/03/09 00:43:48;;;;;;;15.85;8.70;;;;;;;0.69;77.03;100678.03;5089860;28;20524;-61
2022/03/09 00:46:14;;;;;;;16.55;8.90;;;;;;;0.68;77.81;100685.88;5092475;28;20030;-61
2022/03/09 00:48:39;;;;;;;15.48;8.07;;;;;;;0.67;77.94;100682.41;5070694;28;20482;-61
2022/03/09 00:51:06;;;;;;;16.98;9.02;;;;;;;0.63;78.05;100687.53;5088812;28;20137;-61
2022/03/09 00:53:32;;;;;;;17.20;8.68;;;;;;;0.62;78.03;100688.41;5103882;28;20024;-61
2022/03/09 00:55:57;;;;;;;17.80;9.13;;;;;;;0.68;78.11;100696.34;5107283;28;20143;-61
2022/03/09 00:58:23;;;;;;;15.65;8.95;;;;;;;0.57;77.38;100676.97;5109763;28;20028;-61
2022/03/09 01:00:48;;;;;;;21.20;10.05;;;;;;;0.60;77.83;100691.00;5110047;28;20031;-61
2022/03/09 01:03:14;;;;;;;20.95;10.02;;;;;;;0.49;77.93;100695.16;5109753;28;20019;-61
2022/03/09 01:05:40;;;;;;;15.73;9.20;;;;;;;0.45;78.37;100692.44;5110886;28;20024;-61
2022/03/09 01:08:06;;;;;;;14.10;8.88;;;;;;;0.42;78.57;100701.13;5106086;28;20020;-61
2022/03/09 01:10:31;;;;;;;17.27;9.30;;;;;;;0.40;79.16;100696.69;5089258;28;20123;-61
2022/03/09 01:12:56;;;;;;;14.63;8.75;;;;;;;0.43;80.10;100702.03;5089646;28;20081;-61
2022/03/09 01:15:22;;;;;;;16.30;8.68;;;;;;;0.41;79.58;100703.72;5099506;28;20036;-61
2022/03/09 01:17:48;;;;;;;18.08;8.80;;;;;;;0.41;78.95;100694.16;5091588;28;20356;-61
2022/03/09 01:20:14;;;;;;;19.55;9.75;;;;;;;0.37;79.02;100688.81;5089650;28;20048;-61
2022/03/09 01:22:40;;;;;;;16.83;10.73;;;;;;;0.43;79.00;100696.78;5095207;28;20031;-61
2022/03/09 01:25:06;;;;;;;19.73;10.50;;;;;;;0.41;79.23;100694.16;5110275;28;20034;-61
2022/03/09 01:27:32;;;;;;;19.08;10.00;;;;;;;0.33;78.55;100690.47;5109910;28;20088;-61
2022/03/09 01:29:57;;;;;;;17.00;10.07;;;;;;;0.43;78.70;100692.41;5109865;28;20035;-61
2022/03/09 01:32:23;;;;;;;14.00;8.63;;;;;;;0.40;79.17;100700.22;5107865;28;20174;-61
2022/03/09 01:34:49;;;;;;;16.63;8.30;;;;;;;0.34;79.53;100697.50;5107622;28;20505;-61
2022/03/09 01:37:14;;;;;;;21.85;9.68;;;;;;;0.32;79.29;100696.56;5109801;28;20494;-61
2022/03/09 01:39:40;;;;;;;17.17;9.40;;;;;;;0.33;79.66;100706.16;5109391;28;20114;-61
2022/03/09 01:42:06;;;;;;;20.90;9.88;;;;;;;0.27;79.34;100677.28;5109781;28;20061;-61
2022/03/09 01:44:31;;;;;;;20.33;10.32;;;;;;;0.38;78.90;100695.81;5109429;28;20097;-61
2022/03/09 01:46:57;;;;;;;22.63;10.07;;;;;;;0.31;79.01;100683.47;5108532;28;20577;-61
2022/03/09 01:49:24;;;;;;;18.88;10.15;;;;;;;0.38;79.29;100682.75;5091251;28;20030;-61
2022/03/09 01:51:51;;;;;;;23.50;10.75;;;;;;;0.32;79.46;100688.72;5089694;28;20032;-61
2022/03/09 01:54:17;;;;;;;23.00;11.43;;;;;;;0.28;78.68;100686.88;5109597;28;20054;-61
2022/03/09 01:56:43;;;;;;;22.10;10.23;;;;;;;0.20;78.86;100669.31;5109427;28;20047;-61
2022/03/09 01:59:11;;;;;;;21.45;8.82;;;;;;;0.18;79.53;100664.06;5109250;28;20024;-61
2022/03/09 02:01:37;;;;;;;13.82;8.95;;;;;;;0.28;79.88;100680.78;5110025;28;20026;-61
2022/03/09 02:04:04;;;;;;;22.60;10.38;;;;;;;0.30;80.21;100679.09;5109632;28;20035;-61
2022/03/09 02:06:34;;;;;;;21.40;10.75;;;;;;;0.29;80.17;100686.06;5109442;28;20031;-61
2022/03/09 02:11:46;;;;;;;22.25;9.77;;;;;;;0.31;79.42;100692.22;5089120;28;20093;-61
2022/03/09 02:14:45;;;;;;;26.25;10.95;;;;;;;0.32;78.64;100685.22;5098891;28;20016;-61
2022/03/09 02:17:15;;;;;;;21.63;10.30;;;;;;;0.28;78.69;100676.41;5053852;28;20502;-61
2022/03/09 02:19:43;;;;;;;22.15;10.15;;;;;;;0.34;78.68;100679.19;5109283;28;20516;-61
2022/03/09 02:22:26;;;;;;;17.13;10.40;;;;;;;0.31;79.07;100683.47;5109710;28;20035;-61
2022/03/09 02:24:52;;;;;;;16.23;9.38;;;;;;;0.29;79.08;100685.16;5092673;28;20035;-61
2022/03/09 02:27:22;;;;;;;22.98;9.82;;;;;;;0.23;79.33;100687.69;5092819;28;20032;-61
2022/03/09 02:29:48;;;;;;;19.20;9.63;;;;;;;0.07;79.30;100667.31;5092325;28;20028;-61
2022/03/09 02:32:14;;;;;;;22.45;9.88;;;;;;;0.09;80.01;100679.56;5092622;28;20031;-61
2022/03/09 02:34:39;;;;;;;17.95;9.45;;;;;;;-0.05;80.39;100676.66;5092777;28;20034;-61
2022/03/09 02:37:05;;;;;;;17.02;9.65;;;;;;;-0.12;80.19;100680.03;5093812;28;20023;-61
2022/03/09 02:39:31;;;;;;;16.33;9.18;;;;;;;-0.13;80.67;100678.25;5094273;28;20043;-61
2022/03/09 02:41:56;;;;;;;19.65;9.40;;;;;;;-0.12;80.06;100674.78;5092812;28;20099;-61
2022/03/09 02:44:22;;;;;;;23.30;10.95;;;;;;;-0.11;80.47;100681.78;5091900;28;20115;-61
2022/03/09 02:46:47;;;;;;;19.75;10.10;;;;;;;-0.18;81.29;100664.19;5092607;28;20412;-61
2022/03/09 02:49:13;;;;;;;21.63;10.30;;;;;;;-0.16;80.99;100678.19;5092297;28;20111;-61
2022/03/09 02:51:38;;;;;;;22.48;11.45;;;;;;;-0.19;80.87;100680.75;5093694;28;20042;-61
2022/03/09 02:54:04;;;;;;;18.92;9.50;;;;;;;-0.24;81.10;100678.88;5109030;28;20803;-61
2022/03/09 02:56:30;;;;;;;21.58;11.18;;;;;;;-0.31;80.79;100674.34;5112650;28;20031;-61
2022/03/09 02:58:56;;;;;;;24.08;11.27;;;;;;;-0.24;81.04;100681.47;5111623;28;20051;-61
2022/03/09 03:01:21;;;;;;;18.33;10.48;;;;;;;-0.27;81.10;100684.94;5112457;28;20051;-61
2022/03/09 03:03:47;;;;;;;20.65;10.68;;;;;;;-0.33;81.37;100684.78;5112274;28;20039;-61
2022/03/09 03:06:13;;;;;;;15.80;9.40;;;;;;;-0.29;81.53;100693.56;5110611;28;20391;-61
2022/03/09 03:08:40;;;;;;;19.83;9.32;;;;;;;-0.31;80.40;100687.41;5101897;28;20461;-61
2022/03/09 03:11:09;;;;;;;17.48;8.98;;;;;;;-0.41;81.00;100696.81;5107955;28;20063;-61
2022/03/09 03:13:36;;;;;;;23.42;9.77;;;;;;;-0.42;80.74;100700.28;5097065;28;20474;-61
2022/03/09 03:16:02;;;;;;;20.05;9.40;;;;;;;-0.53;80.51;100685.22;5110221;28;20031;-61
2022/03/09 03:18:31;;;;;;;18.58;8.55;;;;;;;-0.50;80.76;100717.50;5094200;28;20059;-61
2022/03/09 03:20:56;;;;;;;16.00;9.27;;;;;;;-0.46;81.27;100718.47;5091451;28;20028;-61
2022/03/09 03:23:23;;;;;;;19.98;9.75;;;;;;;-0.47;81.47;100721.91;5104541;28;20097;-61
2022/03/09 03:25:52;;;;;;;20.85;9.45;;;;;;;-0.49;81.65;100721.88;5112123;28;20024;-61
2022/03/09 03:28:18;;;;;;;18.05;8.95;;;;;;;-0.58;81.34;100720.78;5111833;28;20030;-61
2022/03/09 03:30:44;;;;;;;15.18;8.68;;;;;;;-0.58;81.95;100723.41;5111697;28;20023;-61
2022/03/09 03:33:10;;;;;;;24.27;9.98;;;;;;;-0.57;82.28;100722.53;5111777;28;20027;-61
2022/03/09 03:35:36;;;;;;;26.33;9.38;;;;;;;-0.59;82.12;100721.63;5111630;28;20419;-62
2022/03/09 03:38:01;;;;;;;19.83;10.65;;;;;;;-0.60;83.16;100733.81;5111471;28;20024;-62
2022/03/09 03:40:27;;;;;;;17.40;9.75;;;;;;;-0.54;82.42;100723.50;5110693;28;20035;-61
2022/03/09 03:42:52;;;;;;;20.30;11.07;;;;;;;-0.45;82.14;100725.44;5101616;28;20016;-61
2022/03/09 03:45:17;;;;;;;18.08;10.20;;;;;;;-0.49;82.33;100727.09;5091138;28;20032;-61
2022/03/09 03:47:43;;;;;;;20.90;9.65;;;;;;;-0.47;82.65;100728.03;5091213;28;20062;-61
2022/03/09 03:50:09;;;;;;;22.17;10.00;;;;;;;-0.40;82.62;100722.09;5091161;28;20127;-61
2022/03/09 03:52:34;;;;;;;21.00;9.43;;;;;;;-0.36;82.43;100728.25;5097733;28;20028;-61
2022/03/09 03:54:59;;;;;;;20.27;10.02;;;;;;;-0.40;81.50;100724.72;5111195;28;20031;-61
2022/03/09 03:57:25;;;;;;;21.77;10.40;;;;;;;-0.39;81.56;100728.19;5107976;28;20031;-61
2022/03/09 03:59:50;;;;;;;18.00;11.65;;;;;;;-0.41;81.73;100733.38;5110855;28;20027;-61
2022/03/09 04:02:16;;;;;;;21.45;9.50;;;;;;;-0.48;82.41;100730.59;5111239;28;20027;-61
2022/03/09 04:04:42;;;;;;;18.02;9.65;;;;;;;-0.55;82.33;100733.91;5111420;28;20429;-61
2022/03/09 04:07:07;;;;;;;16.85;10.05;;;;;;;-0.69;82.98;100714.44;5111497;28;20161;-61
2022/03/09 04:09:33;;;;;;;19.15;10.77;;;;;;;-0.61;83.02;100729.44;5094598;28;20020;-61
2022/03/09 04:11:58;;;;;;;16.27;8.90;;;;;;;-0.64;82.09;100718.91;5090505;28;20031;-62
2022/03/09 04:14:23;;;;;;;18.85;10.13;;;;;;;-0.64;82.79;100726.75;5103077;28;20110;-62
2022/03/09 04:16:49;;;;;;;16.27;9.70;;;;;;;-0.66;82.84;100722.34;5111303;28;20027;-61
2022/03/09 04:19:15;;;;;;;23.92;10.25;;;;;;;-0.65;83.42;100716.25;5110242;28;20047;-61
2022/03/09 04:21:41;;;;;;;23.08;11.10;;;;;;;-0.64;83.06;100718.91;5111156;28;20084;-61
2022/03/09 04:24:06;;;;;;;21.73;10.65;;;;;;;-0.68;83.68;100719.72;5091370;28;20024;-61
2022/03/09 04:26:32;;;;;;;15.40;9.82;;;;;;;-0.71;83.96;100722.22;5090283;28;20479;-61
2022/03/09 04:28:59;;;;;;;17.90;9.10;;;;;;;-0.75;83.63;100715.19;5090015;28;20031;-61
2022/03/09 04:31:24;;;;;;;18.50;12.10;;;;;;;-0.76;83.62;100713.44;5090273;28;20043;-61
2022/03/09 04:33:50;;;;;;;22.48;10.00;;;;;;;-0.78;83.79;100719.44;5092537;28;20020;-61
2022/03/09 04:36:15;;;;;;;16.92;9.63;;;;;;;-0.83;83.29;100716.72;5090496;28;20102;-61
2022/03/09 04:38:41;;;;;;;21.25;9.80;;;;;;;-0.89;83.54;100713.94;5092162;28;20525;-61
2022/03/09 04:41:06;;;;;;;14.95;8.30;;;;;;;-0.84;83.25;100720.16;5090354;28;20054;-61
2022/03/09 04:43:32;;;;;;;21.58;11.30;;;;;;;-0.93;83.29;100713.84;5089630;28;20032;-61
2022/03/09 04:45:57;;;;;;;17.05;9.50;;;;;;;-0.95;84.08;100721.66;5090242;28;20028;-61
2022/03/09 04:48:22;;;;;;;22.40;9.90;;;;;;;-1.01;84.34;100713.69;5089955;28;20391;-61
2022/03/09 04:50:48;;;;;;;30.40;10.90;;;;;;;-1.01;84.12;100711.06;5092102;28;20130;-61
2022/03/09 04:53:13;;;;;;;28.30;10.73;;;;;;;-1.03;83.71;100712.75;5102135;28;20107;-61
2022/03/09 04:55:39;;;;;;;18.15;10.27;;;;;;;-1.03;84.65;100707.53;5110545;28;20051;-61
2022/03/09 04:58:04;;;;;;;19.17;10.52;;;;;;;-1.12;83.58;100707.28;5107180;28;20016;-61
2022/03/09 05:00:30;;;;;;;18.40;9.80;;;;;;;-1.25;83.88;100692.16;5109617;28;20067;-61
2022/03/09 05:02:55;;;;;;;17.17;10.93;;;;;;;-1.23;84.29;100708.75;5110274;28;20062;-61
2022/03/09 05:05:20;;;;;;;22.83;11.18;;;;;;;-1.26;84.68;100706.06;5110222;28;20110;-61
2022/03/09 05:07:46;;;;;;;24.77;11.13;;;;;;;-1.21;84.45;100706.19;5108868;28;20023;-62
2022/03/09 05:10:11;;;;;;;23.67;11.52;;;;;;;-1.28;85.00;100705.16;5093477;28;20043;-61
2022/03/09 05:12:37;;;;;;;18.40;10.18;;;;;;;-1.32;85.00;100718.97;5110277;28;20031;-61
2022/03/09 05:15:05;;;;;;;23.60;11.00;;;;;;;-1.36;85.29;100724.94;5095607;28;20081;-61
2022/03/09 05:17:31;;;;;;;22.52;12.32;;;;;;;-1.46;84.45;100728.16;5106426;28;20071;-61
2022/03/09 05:19:57;;;;;;;23.38;12.02;;;;;;;-1.45;84.48;100729.94;5109805;28;20031;-61
2022/03/09 05:22:22;;;;;;;22.38;10.95;;;;;;;-1.43;85.16;100730.84;5109831;28;20019;-61
2022/03/09 05:24:48;;;;;;;23.38;10.73;;;;;;;-1.35;85.46;100724.97;5109901;28;20087;-61
2022/03/09 05:27:13;;;;;;;25.80;10.50;;;;;;;-1.40;85.27;100741.38;5110127;28;20035;-61
2022/03/09 05:29:38;;;;;;;24.25;10.60;;;;;;;-1.38;85.30;100739.66;5110031;28;20100;-61
2022/03/09 05:32:05;;;;;;;38.90;13.10;;;;;;;-1.40;85.71;100741.38;5109667;28;20027;-61
2022/03/09 05:34:30;;;;;;;28.05;10.38;;;;;;;-1.45;85.74;100753.41;5109885;28;20476;-61
2022/03/09 05:36:56;;;;;;;16.83;9.45;;;;;;;-1.28;85.46;100746.03;5109797;28;20058;-61
2022/03/09 05:39:21;;;;;;;25.27;11.02;;;;;;;-1.29;84.52;100760.78;5096929;28;20395;-61
2022/03/09 05:41:47;;;;;;;19.08;10.80;;;;;;;-1.38;84.73;100752.72;5089598;28;20024;-62
2022/03/09 05:44:14;;;;;;;21.23;9.88;;;;;;;-1.42;85.01;100756.09;5089369;28;20078;-61
2022/03/09 05:46:39;;;;;;;18.65;9.77;;;;;;;-1.40;85.44;100762.25;5089546;28;20103;-61
2022/03/09 05:49:05;;;;;;;20.52;10.55;;;;;;;-1.36;84.64;100769.28;5089127;28;20103;-61
2022/03/09 05:51:31;;;;;;;18.77;10.00;;;;;;;-1.38;85.86;100770.97;5095810;28;20024;-61
2022/03/09 05:53:57;;;;;;;23.48;10.27;;;;;;;-1.43;85.78;100772.56;5107005;28;20114;-61
2022/03/09 05:56:23;;;;;;;29.35;9.93;;;;;;;-1.36;85.87;100779.72;5107665;28;20020;-61
2022/03/09 05:58:49;;;;;;;20.10;9.82;;;;;;;-1.29;85.73;100788.59;5093083;28;20527;-61
2022/03/09 06:01:14;;;;;;;19.30;9.30;;;;;;;-1.22;85.03;100782.72;5093402;28;20028;-61
2022/03/09 06:03:40;;;;;;;18.75;9.43;;;;;;;-1.22;85.53;100794.03;5093167;28;20032;-61
2022/03/09 06:06:05;;;;;;;17.73;9.43;;;;;;;-1.18;85.14;100794.97;5093306;28;20543;-61
2022/03/09 06:08:31;;;;;;;17.77;9.98;;;;;;;-1.16;85.00;100794.19;5093221;28;20027;-61
2022/03/09 06:10:57;;;;;;;20.73;9.73;;;;;;;-0.96;85.21;100790.38;5093151;28;20042;-61
2022/03/09 06:13:25;;;;;;;23.58;9.98;;;;;;;-0.65;85.14;100795.53;5092850;28;20024;-61
2022/03/09 06:15:51;;;;;;;18.00;10.57;;;;;;;-0.27;84.11;100793.81;5093134;28;20024;-61
2022/03/09 06:18:16;;;;;;;22.77;10.95;;;;;;;0.13;83.21;100791.22;5092579;28;20063;-61
2022/03/09 06:20:42;;;;;;;23.27;10.52;;;;;;;0.49;80.37;100789.38;5093222;28;20020;-62
2022/03/09 06:23:07;;;;;;;24.20;11.15;;;;;;;0.80;79.12;100790.81;5103873;28;20038;-61
2022/03/09 06:25:34;;;;;;;21.60;10.32;;;;;;;1.68;78.22;100780.97;5113240;28;20489;-61
2022/03/09 06:28:00;;;;;;;23.50;11.52;;;;;;;2.83;69.74;100785.09;5113243;28;20030;-61
2022/03/09 06:30:26;;;;;;;26.67;10.68;;;;;;;3.87;63.63;100790.38;5112990;28;20498;-61
2022/03/09 06:32:52;;;;;;;17.83;10.15;;;;;;;4.99;60.02;100783.00;5112905;28;20126;-61
2022/03/09 06:35:17;;;;;;;17.33;8.63;;;;;;;5.88;57.17;100783.03;5094560;28;20035;-61
2022/03/09 06:37:43;;;;;;;20.88;10.07;;;;;;;6.96;52.83;100782.63;5099853;28;20028;-61
2022/03/09 06:40:09;;;;;;;18.85;10.50;;;;;;;7.75;49.88;100781.16;5074457;28;20705;-61
2022/03/09 06:42:35;;;;;;;34.75;14.75;;;;;;;8.50;48.02;100783.91;5092414;28;20072;-61
2022/03/09 06:45:01;;;;;;;55.80;22.10;;;;;;;9.08;46.03;100768.97;5099892;28;20023;-61
2022/03/09 06:47:26;;;;;;;66.93;29.52;;;;;;;9.42;44.16;100775.53;5092279;28;20586;-61
2022/03/09 06:49:52;;;;;;;56.03;24.75;;;;;;;9.70;43.38;100776.84;5092447;28;20059;-61
2022/03/09 06:52:18;;;;;;;47.40;21.27;;;;;;;10.30;42.09;100786.38;5098811;28;20035;-62
2022/03/09 06:54:43;;;;;;;41.58;19.38;;;;;;;10.81;41.76;100791.56;5112913;28;20031;-61
2022/03/09 06:57:09;;;;;;;38.15;17.65;;;;;;;11.13;40.28;100781.09;5113285;28;20364;-61
2022/03/09 06:59:34;;;;;;;32.35;16.23;;;;;;;11.63;39.17;100799.44;5109424;28;20107;-61
2022/03/09 07:02:00;;;;;;;26.42;13.00;;;;;;;11.87;37.62;100793.50;5112566;28;20428;-61
2022/03/09 07:04:25;;;;;;;32.88;14.80;;;;;;;12.61;37.26;100795.03;5111479;28;20023;-61
2022/03/09 07:06:51;;;;;;;32.67;16.70;;;;;;;13.21;36.14;100793.22;5094158;28;20049;-62
2022/03/09 07:09:17;;;;;;;32.97;16.77;;;;;;;13.32;35.95;100797.38;5093106;28;20020;-61
2022/03/09 07:11:43;;;;;;;27.65;15.95;;;;;;;13.71;36.29;100810.34;5090614;28;20028;-61
2022/03/09 07:14:09;;;;;;;26.88;13.65;;;;;;;14.53;35.38;100813.75;5091711;28;20474;-61
2022/03/09 07:16:34;;;;;;;33.53;17.55;;;;;;;15.05;34.13;100818.06;5091913;28;20035;-62
2022/03/09 07:19:00;;;;;;;36.00;17.25;;;;;;;15.36;33.50;100827.56;5092366;28;20496;-61
2022/03/09 07:21:25;;;;;;;24.75;12.75;;;;;;;15.52;33.14;100830.50;5089856;28;20081;-61
2022/03/09 07:23:51;;;;;;;22.38;11.13;;;;;;;15.32;33.51;100839.31;5107831;28;20106;-61
2022/03/09 07:26:16;;;;;;;18.80;10.80;;;;;;;15.51;34.18;100845.75;5112448;28;20023;-61
2022/03/09 07:28:42;;;;;;;15.95;9.02;;;;;;;15.60;33.75;100812.34;5112037;28;20019;-62
2022/03/09 07:31:08;;;;;;;16.80;8.70;;;;;;;16.05;33.71;100841.75;5111774;28;20065;-61
2022/03/09 07:33:34;;;;;;;18.15;9.90;;;;;;;16.26;33.45;100840.88;5111600;28;20441;-61
2022/03/09 07:36:00;;;;;;;22.63;9.93;;;;;;;15.72;34.77;100844.88;5111967;28;20024;-61
2022/03/09 07:38:26;;;;;;;19.90;10.13;;;;;;;16.18;33.76;100848.34;5111682;28;20372;-61
2022/03/09 07:40:52;;;;;;;19.85;9.23;;;;;;;16.81;33.54;100838.41;5111432;28;20026;-61
2022/03/09 07:43:18;;;;;;;17.60;9.15;;;;;;;17.03;32.91;100835.63;5111769;28;20494;-61
2022/03/09 07:45:44;;;;;;;16.25;8.90;;;;;;;17.02;32.73;100839.22;5098118;28;20114;-62
2022/03/09 07:48:09;;;;;;;15.63;8.48;;;;;;;17.33;31.87;100839.56;5101725;28;20637;-61
2022/03/09 07:50:35;;;;;;;18.63;9.00;;;;;;;17.02;32.95;100844.59;5110291;28;20026;-61
2022/03/09 07:53:00;;;;;;;17.05;8.38;;;;;;;17.07;32.34;100843.47;5111322;28;20023;-61
2022/03/09 07:55:26;;;;;;;22.20;9.00;;;;;;;17.61;31.86;100845.41;5111828;28;20046;-61
2022/03/09 07:57:51;;;;;;;15.82;8.25;;;;;;;17.33;31.13;100844.09;5109401;28;20027;-61
2022/03/09 08:00:17;;;;;;;15.05;8.18;;;;;;;17.64;31.27;100852.47;5109497;28;20030;-61
2022/03/09 08:02:43;;;;;;;13.75;8.40;;;;;;;17.84;30.54;100850.53;5111280;28;20066;-62
2022/03/09 08:05:09;;;;;;;15.40;8.25;;;;;;;17.63;30.53;100811.22;5111868;28;20073;-62
2022/03/09 08:07:34;;;;;;;16.08;9.15;;;;;;;17.93;30.96;100860.00;5111422;28;20027;-62
2022/03/09 08:10:00;;;;;;;15.50;9.18;;;;;;;18.18;30.95;100853.31;5090814;28;20024;-62
2022/03/09 08:12:27;;;;;;;15.35;8.85;;;;;;;18.66;29.48;100865.25;5090682;28;20032;-62
2022/03/09 08:14:53;;;;;;;14.93;8.65;;;;;;;18.28;30.32;100860.00;5090812;28;20067;-62
2022/03/09 08:17:19;;;;;;;16.15;9.52;;;;;;;18.34;30.43;100856.97;5090569;28;20044;-62
2022/03/09 08:19:45;;;;;;;15.73;8.90;;;;;;;17.88;31.07;100857.53;5089160;28;20046;-62
2022/03/09 08:22:11;;;;;;;16.95;9.23;;;;;;;17.41;31.44;100858.91;5092780;28;20027;-62
2022/03/09 08:24:36;;;;;;;20.73;9.75;;;;;;;16.55;33.09;100870.03;5111037;28;20043;-62
2022/03/09 08:27:02;;;;;;;19.13;8.90;;;;;;;16.84;32.71;100862.44;5110492;28;20436;-62
2022/03/09 08:29:28;;;;;;;16.25;9.25;;;;;;;17.23;32.27;100865.16;5109193;28;20034;-62
2022/03/09 08:31:53;;;;;;;18.42;9.95;;;;;;;17.02;32.43;100863.44;5110950;28;20106;-62
2022/03/09 08:34:19;;;;;;;15.90;8.45;;;;;;;16.64;33.34;100869.63;5110741;28;20466;-62
2022/03/09 08:36:44;;;;;;;14.88;9.63;;;;;;;16.30;32.06;100874.69;5108974;28;20443;-62
2022/03/09 08:39:10;;;;;;;16.50;9.77;;;;;;;16.29;33.34;100870.25;5089961;28;20086;-62
2022/03/09 08:41:36;;;;;;;17.13;8.82;;;;;;;16.29;33.43;100864.88;5090510;28;20494;-62
2022/03/09 08:44:02;;;;;;;14.63;8.55;;;;;;;16.43;33.37;100871.41;5089819;28;20062;-62
2022/03/09 08:46:28;;;;;;;14.65;8.45;;;;;;;16.33;32.68;100880.78;5110304;28;20024;-62
2022/03/09 08:48:53;;;;;;;17.63;9.20;;;;;;;16.30;32.30;100880.03;5108519;28;20019;-62
2022/03/09 08:51:21;;;;;;;15.77;8.90;;;;;;;16.22;32.43;100882.19;5096336;28;20028;-62
2022/03/09 08:53:47;;;;;;;17.42;9.38;;;;;;;16.30;32.36;100880.03;5103338;28;20160;-62
2022/03/09 08:56:12;;;;;;;15.15;8.10;;;;;;;15.66;32.85;100882.69;5110551;28;20032;-62
2022/03/09 08:58:38;;;;;;;15.38;8.48;;;;;;;15.62;31.95;100881.06;5103295;28;20020;-62
2022/03/09 09:01:03;;;;;;;19.80;8.80;;;;;;;15.56;31.94;100897.41;5089733;28;20028;-62
2022/03/09 09:03:29;;;;;;;19.60;10.20;;;;;;;15.88;32.28;100893.41;5090782;28;20027;-62
2022/03/09 09:05:55;;;;;;;16.70;7.80;;;;;;;16.12;31.87;100896.94;5091405;28;20039;-62
2022/03/09 09:08:20;;;;;;;17.05;9.90;;;;;;;16.19;32.09;100893.94;5095418;28;20016;-62
2022/03/09 09:10:46;;;;;;;16.70;9.20;;;;;;;16.35;31.34;100899.53;5110074;28;20019;-62
2022/03/09 09:13:11;;;;;;;19.90;9.10;;;;;;;16.22;31.24;100891.13;5110117;28;20030;-62
2022/03/09 09:15:38;;;;;;;15.98;9.05;;;;;;;16.16;30.23;100893.19;5110022;28;20059;-62
2022/03/09 09:18:05;;;;;;;17.42;9.18;;;;;;;16.19;29.82;100893.06;5109181;28;20430;-62
2022/03/09 09:20:31;;;;;;;16.33;7.82;;;;;;;16.05;30.19;100884.69;5109423;28;20526;-62
2022/03/09 09:22:57;;;;;;;14.77;8.38;;;;;;;16.20;28.87;100878.69;5100471;28;20111;-62
2022/03/09 09:25:24;;;;;;;15.68;9.10;;;;;;;16.15;29.15;100891.41;5089530;28;20024;-62
2022/03/09 09:27:50;;;;;;;17.98;7.90;;;;;;;15.92;29.86;100883.44;5092073;28;20730;-62
2022/03/09 09:30:16;;;;;;;15.30;8.38;;;;;;;15.88;31.46;100881.84;5089169;28;20047;-62
2022/03/09 09:32:42;;;;;;;16.25;8.48;;;;;;;16.02;31.27;100884.81;5090248;28;20521;-62
2022/03/09 09:35:08;;;;;;;19.83;8.73;;;;;;;16.39;30.95;100879.69;5089733;28;20028;-63
2022/03/09 09:37:34;;;;;;;17.27;8.52;;;;;;;16.00;30.82;100879.50;5089916;28;20027;-62
2022/03/09 09:39:59;;;;;;;16.48;9.48;;;;;;;15.55;30.74;100874.19;5089300;28;20479;-62
2022/03/09 09:42:30;;;;;;;17.95;9.10;;;;;;;15.43;30.73;100880.03;5089438;28;20103;-62
2022/03/09 09:45:00;;;;;;;15.27;8.20;;;;;;;15.17;31.49;100868.53;5095677;28;20402;-62
2022/03/09 09:47:27;;;;;;;17.15;9.30;;;;;;;14.59;31.19;100876.91;5091111;28;20103;-62
2022/03/09 09:49:53;;;;;;;16.98;9.23;;;;;;;15.17;32.49;100863.16;5090945;28;20016;-62
2022/03/09 09:52:28;;;;;;;22.27;9.43;;;;;;;16.11;31.62;100862.97;5094110;28;20035;-62
2022/03/09 09:54:55;;;;;;;22.73;9.10;;;;;;;16.62;30.38;100855.41;5109341;28;20023;-62
2022/03/09 09:57:22;;;;;;;17.30;8.65;;;;;;;17.10;30.49;100858.56;5109567;28;20096;-62
2022/03/09 09:59:49;;;;;;;18.40;9.75;;;;;;;17.04;29.97;100858.84;5109329;28;20030;-62
2022/03/09 10:02:14;;;;;;;18.50;8.27;;;;;;;16.91;29.05;100858.56;5109690;28;20024;-62
2022/03/09 10:04:40;;;;;;;16.25;9.15;;;;;;;17.15;28.92;100856.53;5109597;28;20026;-62
2022/03/09 10:07:06;;;;;;;18.67;9.48;;;;;;;17.29;30.03;100846.03;5109815;28;20031;-62
2022/03/09 10:09:36;;;;;;;18.45;9.00;;;;;;;16.99;28.55;100850.13;5093066;28;20303;-62
2022/03/09 10:12:04;;;;;;;17.63;10.18;;;;;;;16.55;29.60;100856.63;5088809;28;20062;-62
2022/03/09 10:15:00;;;;;;;15.13;8.93;;;;;;;16.76;28.13;100853.88;5088161;28;20020;-62
2022/03/09 10:17:28;;;;;;;15.40;8.48;;;;;;;16.85;28.17;100857.97;5075987;28;20173;-62
2022/03/09 10:20:07;;;;;;;17.60;9.23;;;;;;;16.90;27.66;100861.31;5088487;28;20028;-62
2022/03/09 10:22:33;;;;;;;21.92;10.23;;;;;;;17.41;27.94;100849.97;5095107;28;20028;-62
2022/03/09 10:25:20;;;;;;;18.17;7.80;;;;;;;17.77;29.48;100846.44;5109277;28;20035;-62
2022/03/09 10:27:51;;;;;;;16.73;9.18;;;;;;;17.66;27.32;100840.66;5109547;28;20028;-62
2022/03/09 10:30:22;;;;;;;16.33;9.45;;;;;;;17.98;26.75;100842.66;5108738;28;20531;-62
2022/03/09 10:32:48;;;;;;;16.05;8.32;;;;;;;17.53;27.24;100842.22;5109416;28;20023;-63
2022/03/09 10:35:20;;;;;;;19.27;9.32;;;;;;;17.33;28.19;100838.69;5108946;28;20089;-63
2022/03/09 10:37:47;;;;;;;15.55;8.55;;;;;;;17.72;28.34;100829.63;5109240;28;20024;-62
2022/03/09 10:40:15;;;;;;;18.42;9.65;;;;;;;18.22;28.34;100841.44;5095596;28;20055;-62
2022/03/09 10:42:40;;;;;;;17.52;8.52;;;;;;;18.86;27.22;100830.03;5090222;28;20028;-62
2022/03/09 10:45:07;;;;;;;14.55;7.35;;;;;;;18.76;25.78;100828.78;5100410;28;20084;-62
2022/03/09 10:47:35;;;;;;;14.73;8.60;;;;;;;17.23;28.42;100832.00;5113033;28;20386;-62
2022/03/09 10:50:08;;;;;;;15.70;8.77;;;;;;;17.35;28.92;100826.91;5110404;28;20529;-62
2022/03/09 10:52:54;;;;;;;15.18;9.10;;;;;;;16.98;27.37;100832.28;5096849;28;20023;-62
2022/03/09 10:55:36;;;;;;;16.33;9.50;;;;;;;17.73;27.38;100823.28;5111782;28;20111;-62
2022/03/09 10:58:13;;;;;;;15.95;8.77;;;;;;;18.31;27.40;100816.72;5110216;28;20055;-62
2022/03/09 11:00:44;;;;;;;14.00;7.63;;;;;;;18.59;27.07;100812.63;5112366;28;20026;-62
2022/03/09 11:03:15;;;;;;;15.30;8.57;;;;;;;18.99;27.13;100814.94;5111609;28;20019;-63
2022/03/09 11:05:51;;;;;;;18.70;9.05;;;;;;;19.32;25.29;100813.13;5108286;28;20027;-62
2022/03/09 11:08:18;;;;;;;18.58;9.40;;;;;;;19.59;25.50;100809.72;5107188;28;20032;-63
2022/03/09 11:10:46;;;;;;;19.13;8.45;;;;;;;19.52;25.42;100810.19;5091412;28;20094;-63
2022/03/09 11:13:12;;;;;;;17.98;8.75;;;;;;;19.57;25.17;100808.09;5092386;28;20395;-63
2022/03/09 11:15:39;;;;;;;18.05;9.35;;;;;;;19.78;26.23;100805.97;5092336;28;20024;-63